Terminal Aerodrome Forecast
Issued by NWS

Home | Current Version | Previous Version | Text Only | Print | Product List | Glossary On
Versions: 1 2 3 4 5 6 7 8 9 10 11 12 13 14 15 16 17 18 19 20 21 22 23 24 25 26
019
FTUS41 KGYX 261720
TAFLEB
TAF
KLEB 261720Z 2618/2718 00000KT P6SM SKC
     FM270400 11001KT P6SM SCT025 OVC050
     FM270600 00000KT P6SM -RA BKN025
     FM270800 00000KT 5SM BR OVC009
      TEMPO 2708/2712 2SM -TSRA BR OVC005CB
     FM271200 13001KT 4SM BR OVC007
     FM271400 13001KT P6SM OVC015=

USA.gov is the U.S. government's official web portal to all federal, state and local government web resources and services.